createdAt,value
2022-09-25T00:01:04.775Z,10.62
2022-09-25T00:03:32.989Z,10.59
2022-09-25T00:06:05.930Z,10.56
2022-09-25T00:08:34.289Z,10.59
2022-09-25T00:11:07.181Z,10.61
2022-09-25T00:13:35.405Z,10.64
2022-09-25T00:16:04.055Z,10.64
2022-09-25T00:18:49.789Z,10.64
2022-09-25T00:21:18.600Z,10.63
2022-09-25T00:23:47.139Z,10.64
2022-09-25T00:26:18.316Z,10.63
2022-09-25T00:28:46.009Z,10.65
2022-09-25T00:31:20.427Z,10.64
2022-09-25T00:33:48.153Z,10.64
2022-09-25T00:36:15.829Z,10.66
2022-09-25T00:38:48.870Z,10.68
2022-09-25T00:41:20.348Z,10.71
2022-09-25T00:43:50.652Z,10.72
2022-09-25T00:46:21.985Z,10.74
2022-09-25T00:48:52.670Z,10.74
2022-09-25T00:51:29.010Z,10.75
2022-09-25T00:54:01.386Z,10.76
2022-09-25T00:56:35.750Z,10.79
2022-09-25T00:59:03.985Z,10.79
2022-09-25T01:01:32.007Z,10.77
2022-09-25T01:04:00.536Z,10.76
2022-09-25T01:06:29.100Z,10.76
2022-09-25T01:08:58.035Z,10.75
2022-09-25T01:11:25.723Z,10.73
2022-09-25T01:13:58.122Z,10.72
2022-09-25T01:16:32.796Z,10.67
2022-09-25T01:19:16.309Z,10.65
2022-09-25T01:21:47.589Z,10.64
2022-09-25T01:24:40.940Z,10.61
2022-09-25T01:27:38.173Z,10.58
2022-09-25T01:30:11.468Z,10.52
2022-09-25T01:32:58.174Z,10.47
2022-09-25T01:35:37.482Z,10.45
2022-09-25T01:38:15.787Z,10.40
2022-09-25T01:40:55.289Z,10.38
2022-09-25T01:43:29.026Z,10.34
2022-09-25T01:46:02.391Z,10.33
2022-09-25T01:48:33.473Z,10.30
2022-09-25T01:51:05.384Z,10.23
2022-09-25T01:53:41.764Z,10.21
2022-09-25T01:56:19.019Z,10.25
2022-09-25T01:58:52.181Z,10.27
2022-09-25T02:01:27.376Z,10.21
2022-09-25T02:04:00.689Z,10.27
2022-09-25T02:06:29.099Z,10.30
2022-09-25T02:09:01.596Z,10.28
2022-09-25T02:11:32.734Z,10.19
2022-09-25T02:14:06.450Z,10.17
2022-09-25T02:16:38.633Z,10.13
2022-09-25T02:19:24.412Z,10.14
2022-09-25T02:22:00.109Z,10.20
2022-09-25T02:24:34.821Z,10.24
2022-09-25T02:27:02.940Z,10.27
2022-09-25T02:29:30.932Z,10.23
2022-09-25T02:32:04.539Z,10.25
2022-09-25T02:34:32.613Z,10.23
2022-09-25T02:37:00.347Z,10.23
2022-09-25T02:39:30.951Z,10.21
2022-09-25T02:42:13.735Z,10.22
2022-09-25T02:44:52.467Z,10.22
2022-09-25T02:47:34.548Z,10.20
2022-09-25T02:50:09.001Z,10.19
2022-09-25T02:52:43.917Z,10.20
2022-09-25T02:55:16.421Z,10.20
2022-09-25T02:57:48.529Z,10.22
2022-09-25T03:00:16.684Z,10.21
2022-09-25T03:02:52.128Z,10.22
2022-09-25T03:05:21.538Z,10.23
2022-09-25T03:08:07.298Z,10.25
2022-09-25T03:10:37.857Z,10.28
2022-09-25T03:13:16.696Z,10.30
2022-09-25T03:15:47.555Z,10.32
2022-09-25T03:18:16.744Z,10.36
2022-09-25T03:20:45.246Z,10.40
2022-09-25T03:23:12.957Z,10.44
2022-09-25T03:25:42.785Z,10.47
2022-09-25T03:28:14.043Z,10.50
2022-09-25T03:30:42.575Z,10.52
2022-09-25T03:33:11.383Z,10.53
2022-09-25T03:35:40.946Z,10.54
2022-09-25T03:38:10.471Z,10.56
2022-09-25T03:40:38.344Z,10.56
2022-09-25T03:45:32.846Z,10.60
2022-09-25T03:48:00.558Z,10.61
2022-09-25T03:50:28.285Z,10.62
2022-09-25T03:52:57.358Z,10.62
2022-09-25T03:55:26.025Z,10.60
2022-09-25T03:57:53.713Z,10.62
2022-09-25T04:00:21.419Z,10.61
2022-09-25T04:02:50.016Z,10.63
2022-09-25T04:05:20.057Z,10.64
2022-09-25T04:07:48.292Z,10.63
2022-09-25T04:10:17.572Z,10.65
2022-09-25T04:12:45.267Z,10.64
2022-09-25T04:15:13.000Z,10.66
2022-09-25T04:17:40.708Z,10.65
2022-09-25T04:20:09.533Z,10.65
2022-09-25T04:22:37.588Z,10.66
2022-09-25T04:25:06.024Z,10.68
2022-09-25T04:27:35.106Z,10.68
2022-09-25T04:30:02.837Z,10.69
2022-09-25T04:32:59.324Z,10.71
2022-09-25T04:35:27.395Z,10.72
2022-09-25T04:37:55.108Z,10.70
2022-09-25T04:40:22.863Z,10.70
2022-09-25T04:42:56.594Z,10.75
2022-09-25T04:45:26.577Z,10.79
2022-09-25T04:47:54.928Z,10.85
2022-09-25T04:50:22.705Z,10.83
2022-09-25T04:52:51.281Z,10.86
2022-09-25T04:55:19.359Z,10.87
2022-09-25T04:57:58.876Z,10.90
2022-09-25T05:00:30.520Z,10.91
2022-09-25T05:02:59.020Z,10.93
2022-09-25T05:05:28.158Z,10.93
2022-09-25T05:07:57.396Z,10.97
2022-09-25T05:10:27.322Z,11.00
2022-09-25T05:12:56.445Z,11.02
2022-09-25T05:15:24.160Z,11.01
2022-09-25T05:18:00.801Z,11.03
2022-09-25T05:20:28.612Z,11.03
2022-09-25T05:22:57.130Z,11.10
2022-09-25T05:25:25.397Z,11.13
2022-09-25T05:27:55.729Z,11.17
2022-09-25T05:30:24.051Z,11.15
2022-09-25T05:32:54.029Z,11.10
2022-09-25T05:35:23.983Z,11.11
2022-09-25T05:37:52.034Z,11.12
2022-09-25T05:40:21.267Z,11.10
2022-09-25T05:42:49.269Z,11.18
2022-09-25T05:45:18.275Z,11.19
2022-09-25T05:47:46.041Z,11.16
2022-09-25T05:50:16.798Z,11.18
2022-09-25T05:52:44.831Z,11.21
2022-09-25T05:55:12.655Z,11.21
2022-09-25T05:57:40.378Z,11.20
2022-09-25T06:00:11.448Z,11.21
2022-09-25T06:02:41.944Z,11.23
2022-09-25T06:05:10.598Z,11.26
2022-09-25T06:07:39.977Z,11.17
2022-09-25T06:10:09.829Z,11.20
2022-09-25T06:12:37.572Z,11.22
2022-09-25T06:15:06.204Z,11.28
2022-09-25T06:17:33.918Z,11.26
2022-09-25T06:20:01.947Z,11.26
2022-09-25T06:22:30.157Z,11.24
2022-09-25T06:24:59.380Z,11.36
2022-09-25T06:27:27.528Z,11.36
2022-09-25T06:29:55.241Z,11.39
2022-09-25T06:32:23.374Z,11.46
2022-09-25T06:34:51.104Z,11.56
2022-09-25T06:37:18.806Z,11.49
2022-09-25T06:39:46.511Z,11.53
2022-09-25T06:42:15.581Z,11.60
2022-09-25T06:44:43.873Z,11.68
2022-09-25T06:47:18.261Z,11.68
2022-09-25T06:49:47.189Z,11.68
2022-09-25T06:52:14.915Z,11.65
2022-09-25T06:54:44.306Z,11.61
2022-09-25T06:57:12.684Z,11.66
2022-09-25T06:59:41.826Z,11.69
2022-09-25T07:02:24.448Z,11.68
2022-09-25T07:04:52.264Z,11.66
2022-09-25T07:07:21.034Z,11.68
2022-09-25T07:09:49.184Z,11.73
2022-09-25T07:12:17.622Z,11.78
2022-09-25T07:14:47.599Z,11.75
2022-09-25T07:17:15.718Z,11.68
2022-09-25T07:19:43.426Z,11.67
2022-09-25T07:22:11.759Z,11.63
2022-09-25T07:24:39.665Z,11.64
2022-09-25T07:27:07.339Z,11.65
2022-09-25T07:29:35.504Z,11.62
2022-09-25T07:32:04.679Z,11.68
2022-09-25T07:34:32.394Z,11.73
2022-09-25T07:37:00.205Z,11.75
2022-09-25T07:39:27.897Z,11.79
2022-09-25T07:41:55.612Z,11.78
2022-09-25T07:44:37.499Z,11.66
2022-09-25T07:47:08.783Z,11.73
2022-09-25T07:49:36.695Z,11.76
2022-09-25T07:52:06.100Z,11.79
2022-09-25T07:54:34.512Z,11.81
2022-09-25T07:57:02.233Z,11.83
2022-09-25T07:59:29.961Z,11.88
2022-09-25T08:01:58.883Z,11.94
2022-09-25T08:04:27.949Z,11.93
2022-09-25T08:06:55.652Z,11.85
2022-09-25T08:09:23.335Z,11.77
2022-09-25T08:11:51.067Z,11.80
2022-09-25T08:14:23.270Z,11.80
2022-09-25T08:16:55.795Z,11.83
2022-09-25T08:19:24.068Z,11.83
2022-09-25T08:21:53.111Z,11.90
2022-09-25T08:24:20.847Z,11.90
2022-09-25T08:26:48.699Z,11.96
2022-09-25T08:29:16.386Z,12.06
2022-09-25T08:31:44.245Z,12.06
2022-09-25T08:34:36.229Z,12.17
2022-09-25T08:37:01.000Z,12.33
2022-09-25T08:39:28.740Z,12.41
2022-09-25T08:41:57.848Z,12.51
2022-09-25T08:44:31.649Z,12.64
2022-09-25T08:47:20.589Z,12.56
2022-09-25T08:49:56.304Z,12.59
2022-09-25T08:52:25.596Z,12.48
2022-09-25T08:54:54.442Z,12.42
2022-09-25T08:57:31.374Z,12.61
2022-09-25T09:00:03.248Z,12.60
2022-09-25T09:02:39.378Z,12.54
2022-09-25T09:05:18.210Z,12.42
2022-09-25T09:07:50.689Z,12.48
2022-09-25T09:10:29.006Z,12.54
2022-09-25T09:13:02.570Z,12.61
2022-09-25T09:15:41.195Z,12.67
2022-09-25T09:18:20.034Z,12.58
2022-09-25T09:20:52.930Z,12.71
2022-09-25T09:23:24.110Z,12.72
2022-09-25T09:26:03.286Z,12.84
2022-09-25T09:28:54.606Z,12.85
2022-09-25T09:31:28.420Z,12.86
2022-09-25T09:34:09.921Z,12.90
2022-09-25T09:36:45.539Z,12.84
2022-09-25T09:39:21.571Z,12.81
2022-09-25T09:42:01.743Z,12.82
2022-09-25T09:44:57.655Z,12.87
2022-09-25T09:47:41.769Z,12.76
2022-09-25T09:50:24.395Z,12.85
2022-09-25T09:52:59.134Z,12.92
2022-09-25T09:55:36.578Z,12.90
2022-09-25T09:58:09.448Z,12.87
2022-09-25T10:00:39.492Z,13.01
2022-09-25T10:03:19.620Z,13.17
2022-09-25T10:05:49.176Z,13.29
2022-09-25T10:08:17.537Z,13.31
2022-09-25T10:10:51.226Z,13.42
2022-09-25T10:13:21.348Z,13.34
2022-09-25T10:15:53.419Z,13.46
2022-09-25T10:18:23.623Z,13.56
2022-09-25T10:20:56.736Z,13.62
2022-09-25T10:23:38.952Z,13.73
2022-09-25T10:26:24.331Z,13.72
2022-09-25T10:28:52.160Z,13.67
2022-09-25T10:31:21.346Z,13.68
2022-09-25T10:34:04.897Z,13.75
2022-09-25T10:36:40.021Z,13.76
2022-09-25T10:39:43.416Z,13.78
2022-09-25T10:42:37.174Z,13.90
2022-09-25T10:45:27.529Z,13.89
2022-09-25T10:48:12.788Z,13.92
2022-09-25T10:50:40.604Z,14.02
2022-09-25T10:53:30.225Z,14.17
2022-09-25T10:56:04.973Z,14.26
2022-09-25T10:58:39.370Z,14.37
2022-09-25T11:01:13.552Z,14.27
2022-09-25T11:03:55.944Z,14.26
2022-09-25T11:06:26.798Z,14.24
2022-09-25T11:09:07.806Z,14.09
2022-09-25T11:11:37.717Z,14.03
2022-09-25T11:14:09.344Z,13.97
2022-09-25T11:16:47.365Z,13.97
2022-09-25T11:19:18.828Z,14.02
2022-09-25T11:21:57.013Z,14.10
2022-09-25T11:24:30.553Z,14.25
2022-09-25T11:27:05.856Z,14.37
2022-09-25T11:29:43.184Z,14.49
2022-09-25T11:32:21.285Z,14.59
2022-09-25T11:35:19.723Z,14.76
2022-09-25T11:37:57.389Z,14.78
2022-09-25T11:40:57.141Z,14.87
2022-09-25T11:43:37.419Z,14.85
2022-09-25T11:46:14.326Z,14.97
2022-09-25T11:48:51.966Z,15.11
2022-09-25T11:51:32.240Z,15.26
2022-09-25T11:54:31.910Z,15.42
2022-09-25T11:57:05.040Z,15.43
2022-09-25T11:59:46.809Z,15.44
2022-09-25T12:02:29.042Z,15.43
2022-09-25T12:05:17.583Z,15.56
2022-09-25T12:08:03.544Z,15.75
2022-09-25T12:10:43.758Z,15.99
2022-09-25T12:13:21.212Z,16.08
2022-09-25T12:15:58.840Z,16.07
2022-09-25T12:18:43.646Z,16.37
2022-09-25T12:21:17.859Z,16.69
2022-09-25T12:23:51.974Z,16.73
2022-09-25T12:26:26.028Z,16.92
2022-09-25T12:29:09.839Z,16.99
2022-09-25T12:31:46.596Z,16.99
2022-09-25T12:34:33.633Z,16.92
2022-09-25T12:37:14.374Z,16.77
2022-09-25T12:39:45.800Z,16.67
2022-09-25T12:42:18.043Z,16.70
2022-09-25T12:44:52.981Z,16.71
2022-09-25T12:47:29.362Z,16.82
2022-09-25T12:50:04.999Z,16.93
2022-09-25T12:52:40.601Z,17.04
2022-09-25T12:55:18.745Z,16.98
2022-09-25T12:57:55.671Z,16.95
2022-09-25T13:00:25.872Z,16.94
2022-09-25T13:03:00.988Z,17.00
2022-09-25T13:05:35.088Z,17.04
2022-09-25T13:08:11.057Z,17.07
2022-09-25T13:10:40.928Z,17.04
2022-09-25T13:13:13.425Z,16.93
2022-09-25T13:15:43.090Z,17.03
2022-09-25T13:18:17.809Z,17.05
2022-09-25T13:20:51.979Z,17.11
2022-09-25T13:23:33.246Z,17.10
2022-09-25T13:26:10.120Z,17.14
2022-09-25T13:28:41.800Z,17.08
2022-09-25T13:31:12.291Z,17.08
2022-09-25T13:33:47.068Z,17.28
2022-09-25T13:36:33.244Z,17.22
2022-09-25T13:39:20.537Z,17.22
2022-09-25T13:41:51.691Z,17.01
2022-09-25T13:44:53.661Z,16.82
2022-09-25T13:47:45.392Z,16.58
2022-09-25T13:50:27.200Z,16.59
2022-09-25T13:53:17.897Z,16.50
2022-09-25T13:56:20.552Z,16.66
2022-09-25T13:59:07.705Z,17.02
2022-09-25T14:01:38.500Z,17.30
2022-09-25T14:04:12.132Z,17.55
2022-09-25T14:06:42.060Z,17.81
2022-09-25T14:09:14.358Z,17.89
2022-09-25T14:11:51.534Z,17.77
2022-09-25T14:14:28.909Z,17.33
2022-09-25T14:16:59.545Z,17.27
2022-09-25T14:19:31.916Z,17.14
2022-09-25T14:22:01.443Z,16.87
2022-09-25T14:24:31.930Z,16.86
2022-09-25T14:27:01.092Z,16.71
2022-09-25T14:29:32.712Z,16.51
2022-09-25T14:32:42.850Z,16.38
2022-09-25T14:35:25.356Z,16.10
2022-09-25T14:38:11.098Z,16.05
2022-09-25T14:40:45.603Z,15.99
2022-09-25T14:46:11.942Z,15.77
2022-09-25T14:48:44.889Z,15.69
2022-09-25T14:51:16.171Z,15.57
2022-09-25T14:53:47.394Z,15.54
2022-09-25T14:56:16.726Z,15.52
2022-09-25T14:58:47.749Z,15.52
2022-09-25T15:01:22.918Z,15.52
2022-09-25T15:03:51.465Z,15.60
2022-09-25T15:06:27.228Z,15.71
2022-09-25T15:08:55.020Z,15.90
2022-09-25T15:11:29.554Z,15.97
2022-09-25T15:14:11.173Z,16.02
2022-09-25T15:16:57.518Z,16.05
2022-09-25T15:19:28.974Z,16.06
2022-09-25T15:21:57.127Z,16.13
2022-09-25T15:24:28.596Z,16.17
2022-09-25T15:27:03.580Z,16.24
2022-09-25T15:29:36.289Z,16.25
2022-09-25T15:32:06.384Z,16.23
2022-09-25T15:34:35.176Z,16.23
2022-09-25T15:37:20.841Z,16.20
2022-09-25T15:39:48.555Z,16.13
2022-09-25T15:42:17.662Z,16.01
2022-09-25T15:44:46.054Z,15.91
2022-09-25T15:47:46.091Z,15.82
2022-09-25T15:50:22.529Z,15.72
2022-09-25T15:52:52.652Z,15.63
2022-09-25T15:55:22.208Z,15.56
2022-09-25T15:57:53.870Z,15.50
2022-09-25T16:00:41.115Z,15.42
2022-09-25T16:03:35.445Z,15.33
2022-09-25T16:06:04.284Z,15.28
2022-09-25T16:08:34.028Z,15.24
2022-09-25T16:11:18.455Z,15.22
2022-09-25T16:13:51.658Z,15.21
2022-09-25T16:16:29.364Z,15.19
2022-09-25T16:18:58.955Z,15.11
2022-09-25T16:21:31.672Z,15.08
2022-09-25T16:24:01.834Z,15.04
2022-09-25T16:26:39.333Z,14.98
2022-09-25T16:29:20.429Z,14.92
2022-09-25T16:31:53.943Z,14.85
2022-09-25T16:34:27.044Z,14.78
2022-09-25T16:36:57.648Z,14.73
2022-09-25T16:39:29.466Z,14.65
2022-09-25T16:41:59.908Z,14.59
2022-09-25T16:44:46.734Z,14.48
2022-09-25T16:47:18.688Z,14.43
2022-09-25T16:49:46.707Z,14.39
2022-09-25T16:52:22.204Z,14.35
2022-09-25T16:54:54.390Z,14.30
2022-09-25T16:57:23.255Z,14.29
2022-09-25T16:59:52.931Z,14.27
2022-09-25T17:02:33.275Z,14.25
2022-09-25T17:05:03.601Z,14.20
2022-09-25T17:07:31.403Z,14.18
2022-09-25T17:10:00.879Z,14.14
2022-09-25T17:12:30.370Z,14.12
2022-09-25T17:14:59.711Z,14.08
2022-09-25T17:17:29.443Z,14.06
2022-09-25T17:19:57.290Z,14.02
2022-09-25T17:22:29.473Z,14.00
2022-09-25T17:25:01.850Z,13.96
2022-09-25T17:27:29.623Z,13.90
2022-09-25T17:29:57.341Z,13.89
2022-09-25T17:32:26.847Z,13.82
2022-09-25T17:34:57.486Z,13.77
2022-09-25T17:37:25.221Z,13.75
2022-09-25T17:39:52.988Z,13.72
2022-09-25T17:42:20.917Z,13.72
2022-09-25T17:44:49.342Z,13.71
2022-09-25T17:47:17.035Z,13.68
2022-09-25T17:49:46.280Z,13.66
2022-09-25T17:52:17.612Z,13.65
2022-09-25T17:54:45.704Z,13.63
2022-09-25T17:57:13.447Z,13.62
2022-09-25T17:59:41.142Z,13.62
2022-09-25T18:02:16.789Z,13.60
2022-09-25T18:04:45.960Z,13.58
2022-09-25T18:07:15.183Z,13.55
2022-09-25T18:09:42.936Z,13.53
2022-09-25T18:12:10.641Z,13.52
2022-09-25T18:14:38.357Z,13.52
2022-09-25T18:17:06.171Z,13.50
2022-09-25T18:19:51.738Z,13.50
2022-09-25T18:22:25.194Z,13.47
2022-09-25T18:24:56.557Z,13.45
2022-09-25T18:27:26.159Z,13.42
2022-09-25T18:29:53.914Z,13.40
2022-09-25T18:32:22.152Z,13.39
2022-09-25T18:34:49.846Z,13.37
2022-09-25T18:37:17.605Z,13.35
2022-09-25T18:39:47.932Z,13.35
2022-09-25T18:42:15.692Z,13.37
2022-09-25T18:44:43.494Z,13.37
2022-09-25T18:47:11.467Z,13.36
2022-09-25T18:49:39.159Z,13.34
2022-09-25T18:52:07.019Z,13.33
2022-09-25T18:54:35.451Z,13.32
2022-09-25T18:57:04.669Z,13.31
2022-09-25T18:59:32.588Z,13.28
2022-09-25T19:02:00.877Z,13.26
2022-09-25T19:04:28.875Z,13.21
2022-09-25T19:06:56.627Z,13.16
2022-09-25T19:09:27.216Z,13.15
2022-09-25T19:11:55.069Z,13.14
2022-09-25T19:14:24.837Z,13.14
2022-09-25T19:16:53.130Z,13.12
2022-09-25T19:19:21.039Z,13.07
2022-09-25T19:21:48.811Z,13.02
2022-09-25T19:24:18.156Z,12.97
2022-09-25T19:26:45.958Z,12.94
2022-09-25T19:29:13.819Z,12.92
2022-09-25T19:31:43.044Z,12.88
2022-09-25T19:34:10.855Z,12.85
2022-09-25T19:36:38.640Z,12.82
2022-09-25T19:39:06.360Z,12.80
2022-09-25T19:41:36.203Z,12.76
2022-09-25T19:44:12.244Z,12.75
2022-09-25T19:46:43.845Z,12.73
2022-09-25T19:49:12.204Z,12.72
2022-09-25T19:51:40.248Z,12.70
2022-09-25T19:54:09.361Z,12.69
2022-09-25T19:56:40.482Z,12.68
2022-09-25T19:59:08.929Z,12.66
2022-09-25T20:01:36.918Z,12.67
2022-09-25T20:04:08.475Z,12.68
2022-09-25T20:06:37.788Z,12.68
2022-09-25T20:09:06.908Z,12.68
2022-09-25T20:11:36.325Z,12.68
2022-09-25T20:14:06.286Z,12.71
2022-09-25T20:16:34.031Z,12.70
2022-09-25T20:19:03.864Z,12.71
2022-09-25T20:21:35.933Z,12.73
2022-09-25T20:24:05.282Z,12.80
2022-09-25T20:26:33.685Z,12.85
2022-09-25T20:29:03.379Z,12.81
2022-09-25T20:31:34.292Z,12.77
2022-09-25T20:34:02.402Z,12.73
2022-09-25T20:36:30.371Z,12.72
2022-09-25T20:39:00.814Z,12.73
2022-09-25T20:41:28.578Z,12.74
2022-09-25T20:43:58.108Z,12.72
2022-09-25T20:46:27.429Z,12.73
2022-09-25T20:48:58.313Z,12.72
2022-09-25T20:51:27.907Z,12.73
2022-09-25T20:53:57.687Z,12.69
2022-09-25T20:56:27.981Z,12.66
2022-09-25T20:58:56.735Z,12.66
2022-09-25T21:01:26.243Z,12.64
2022-09-25T21:03:54.651Z,12.63
2022-09-25T21:06:24.305Z,12.59
2022-09-25T21:08:52.986Z,12.61
2022-09-25T21:11:20.963Z,12.56
2022-09-25T21:13:52.955Z,12.50
2022-09-25T21:16:25.371Z,12.47
2022-09-25T21:18:55.174Z,12.45
2022-09-25T21:21:24.266Z,12.43
2022-09-25T21:23:53.825Z,12.41
2022-09-25T21:26:23.151Z,12.44
2022-09-25T21:28:54.037Z,12.46
2022-09-25T21:31:23.715Z,12.43
2022-09-25T21:33:52.860Z,12.43
2022-09-25T21:36:23.426Z,12.41
2022-09-25T21:38:51.482Z,12.41
2022-09-25T21:41:20.840Z,12.41
2022-09-25T21:43:49.337Z,12.41
2022-09-25T21:46:20.498Z,12.37
2022-09-25T21:48:50.321Z,12.34
2022-09-25T21:51:19.706Z,12.34
2022-09-25T21:53:47.830Z,12.39
2022-09-25T21:56:18.310Z,12.42
2022-09-25T21:58:47.156Z,12.49
2022-09-25T22:01:18.895Z,12.45
2022-09-25T22:03:50.011Z,12.41
2022-09-25T22:06:20.157Z,12.38
2022-09-25T22:08:49.712Z,12.36
2022-09-25T22:11:17.694Z,12.35
2022-09-25T22:13:46.758Z,12.32
2022-09-25T22:16:18.046Z,12.32
2022-09-25T22:18:49.618Z,12.33
2022-09-25T22:21:19.221Z,12.33
2022-09-25T22:23:47.736Z,12.30
2022-09-25T22:26:17.151Z,12.18
2022-09-25T22:28:45.372Z,12.12
2022-09-25T22:31:15.449Z,12.10
2022-09-25T22:33:43.804Z,12.14
2022-09-25T22:36:13.286Z,12.09
2022-09-25T22:38:41.878Z,12.03
2022-09-25T22:41:11.039Z,11.98
2022-09-25T22:43:39.530Z,11.95
2022-09-25T22:46:08.722Z,11.94
2022-09-25T22:48:36.617Z,11.94
2022-09-25T22:51:06.709Z,11.93
2022-09-25T22:53:36.758Z,11.95
2022-09-25T22:56:12.639Z,11.95
2022-09-25T22:58:40.589Z,11.98
2022-09-25T23:01:12.156Z,11.98
2022-09-25T23:03:40.420Z,12.00
2022-09-25T23:06:08.842Z,11.99
2022-09-25T23:08:37.997Z,12.01
2022-09-25T23:11:08.280Z,12.00
2022-09-25T23:13:37.292Z,12.01
2022-09-25T23:16:07.204Z,12.03
2022-09-25T23:18:35.382Z,12.04
2022-09-25T23:21:03.143Z,12.03
2022-09-25T23:23:31.013Z,12.03
2022-09-25T23:26:06.048Z,12.06
2022-09-25T23:28:35.012Z,12.06
2022-09-25T23:31:10.834Z,12.06
2022-09-25T23:33:39.688Z,12.14
2022-09-25T23:36:09.597Z,12.11
2022-09-25T23:38:37.922Z,12.07
2022-09-25T23:41:16.478Z,12.07
2022-09-25T23:43:45.196Z,12.02
2022-09-25T23:46:13.683Z,11.99
2022-09-25T23:48:41.464Z,11.96
2022-09-25T23:51:09.264Z,11.94
2022-09-25T23:53:37.519Z,11.96
2022-09-25T23:56:09.103Z,12.00
2022-09-25T23:58:38.554Z,12.04
